createdAt,value
2018-07-20T00:02:04.123Z,55.90
2018-07-20T00:05:08.128Z,55.90
2018-07-20T00:08:12.173Z,56.00
2018-07-20T00:11:16.958Z,56.10
2018-07-20T00:14:21.025Z,56.00
2018-07-20T00:17:24.937Z,55.60
2018-07-20T00:20:28.877Z,56.00
2018-07-20T00:23:32.815Z,54.50
2018-07-20T00:26:36.693Z,54.30
2018-07-20T00:29:40.605Z,53.80
2018-07-20T00:32:44.509Z,53.60
2018-07-20T00:35:48.377Z,53.70
2018-07-20T00:38:52.257Z,53.80
2018-07-20T00:41:56.177Z,54.80
2018-07-20T00:45:00.086Z,54.40
2018-07-20T00:48:04.038Z,54.40
2018-07-20T00:51:08.047Z,54.50
2018-07-20T00:54:12.026Z,54.60
2018-07-20T00:57:15.933Z,54.80
2018-07-20T01:00:19.987Z,55.60
2018-07-20T01:03:23.864Z,56.10
2018-07-20T01:06:27.819Z,55.90
2018-07-20T01:09:31.734Z,55.90
2018-07-20T01:12:35.681Z,56.00
2018-07-20T01:15:39.640Z,56.40
2018-07-20T01:18:43.567Z,56.50
2018-07-20T01:21:47.533Z,57.10
2018-07-20T01:24:51.422Z,58.20
2018-07-20T01:27:55.364Z,57.50
2018-07-20T01:30:59.318Z,57.40
2018-07-20T01:34:03.339Z,57.50
2018-07-20T01:37:07.346Z,57.70
2018-07-20T01:40:11.249Z,58.00
2018-07-20T01:43:15.171Z,58.40
2018-07-20T01:46:19.123Z,58.40
2018-07-20T01:49:23.042Z,58.50
2018-07-20T01:52:27.005Z,58.60
2018-07-20T01:55:30.930Z,59.50
2018-07-20T01:58:34.845Z,58.80
2018-07-20T02:01:38.757Z,58.70
2018-07-20T02:04:42.661Z,59.00
2018-07-20T02:07:46.578Z,59.10
2018-07-20T02:10:56.899Z,59.10
2018-07-20T02:14:00.762Z,59.10
2018-07-20T02:17:04.708Z,59.20
2018-07-20T02:20:08.615Z,58.90
2018-07-20T02:23:12.526Z,58.80
2018-07-20T02:26:17.315Z,58.90
2018-07-20T02:29:21.491Z,58.90
2018-07-20T02:32:25.376Z,58.80
2018-07-20T02:35:29.331Z,58.60
2018-07-20T02:38:33.263Z,58.00
2018-07-20T02:41:37.168Z,58.00
2018-07-20T02:44:41.112Z,57.40
2018-07-20T02:47:45.042Z,57.20
2018-07-20T02:50:48.968Z,57.20
2018-07-20T02:53:52.866Z,57.40
2018-07-20T02:56:56.745Z,57.70
2018-07-20T03:00:00.628Z,57.90
2018-07-20T03:03:04.537Z,58.00
2018-07-20T03:06:08.553Z,58.00
2018-07-20T03:09:13.604Z,58.00
2018-07-20T03:12:17.549Z,57.60
2018-07-20T03:15:21.432Z,57.80
2018-07-20T03:18:25.403Z,58.00
2018-07-20T03:21:29.341Z,58.20
2018-07-20T03:24:33.298Z,58.40
2018-07-20T03:27:37.188Z,58.20
2018-07-20T03:30:41.131Z,58.20
2018-07-20T03:33:45.084Z,58.20
2018-07-20T03:36:48.978Z,58.30
2018-07-20T03:39:52.860Z,58.40
2018-07-20T03:42:56.779Z,58.40
2018-07-20T03:46:00.715Z,58.40
2018-07-20T03:49:04.724Z,58.50
2018-07-20T03:52:08.975Z,58.40
2018-07-20T03:55:12.959Z,58.20
2018-07-20T03:58:16.846Z,58.30
2018-07-20T04:01:20.729Z,58.00
2018-07-20T04:04:24.727Z,57.80
2018-07-20T04:07:28.610Z,57.70
2018-07-20T04:10:32.513Z,57.60
2018-07-20T04:13:36.423Z,57.60
2018-07-20T04:16:40.376Z,57.60
2018-07-20T04:19:44.196Z,57.80
2018-07-20T04:22:48.089Z,57.90
2018-07-20T04:25:51.975Z,57.70
2018-07-20T04:28:55.837Z,57.60
2018-07-20T04:31:59.741Z,57.50
2018-07-20T04:35:03.669Z,57.40
2018-07-20T04:38:07.564Z,57.10
2018-07-20T04:41:11.475Z,57.00
2018-07-20T04:44:15.360Z,56.70
2018-07-20T04:47:19.272Z,56.40
2018-07-20T04:50:23.237Z,55.90
2018-07-20T04:53:27.183Z,55.50
2018-07-20T04:56:31.061Z,55.30
2018-07-20T04:59:34.922Z,54.80
2018-07-20T05:02:38.749Z,54.30
2018-07-20T05:05:42.700Z,53.80
2018-07-20T05:08:46.626Z,53.60
2018-07-20T05:11:50.546Z,52.70
2018-07-20T05:14:54.502Z,52.80
2018-07-20T05:17:58.394Z,52.60
2018-07-20T05:21:02.260Z,52.50
2018-07-20T05:24:06.408Z,51.90
2018-07-20T05:27:10.312Z,51.50
2018-07-20T05:30:14.231Z,50.40
2018-07-20T05:33:18.191Z,50.70
2018-07-20T05:36:22.191Z,51.30
2018-07-20T05:39:26.067Z,51.10
2018-07-20T05:42:30.097Z,50.60
2018-07-20T05:45:33.988Z,49.90
2018-07-20T05:48:37.893Z,49.60
2018-07-20T05:51:41.814Z,49.50
2018-07-20T05:54:45.766Z,48.90
2018-07-20T05:57:49.703Z,48.80
2018-07-20T06:00:53.617Z,48.30
2018-07-20T06:03:57.557Z,48.20
2018-07-20T06:07:01.463Z,47.60
2018-07-20T06:10:05.370Z,47.20
2018-07-20T06:13:09.331Z,47.00
2018-07-20T06:16:13.263Z,45.80
2018-07-20T06:19:17.317Z,44.40
2018-07-20T06:22:21.240Z,43.40
2018-07-20T06:25:25.373Z,42.80
2018-07-20T06:28:29.238Z,41.90
2018-07-20T06:31:33.445Z,41.40
2018-07-20T06:34:37.355Z,40.70
2018-07-20T06:37:41.287Z,40.00
2018-07-20T06:40:45.459Z,38.80
2018-07-20T06:43:49.454Z,37.90
2018-07-20T06:46:53.379Z,37.00
2018-07-20T06:49:57.264Z,35.50
2018-07-20T06:53:01.275Z,34.00
2018-07-20T06:56:05.251Z,32.80
2018-07-20T06:59:09.094Z,31.50
2018-07-20T07:02:13.035Z,30.00
2018-07-20T07:05:17.026Z,29.00
2018-07-20T07:08:20.982Z,27.90
2018-07-20T07:11:24.922Z,26.80
2018-07-20T07:14:29.023Z,26.30
2018-07-20T07:17:32.872Z,25.90
2018-07-20T07:20:36.940Z,25.70
2018-07-20T07:23:40.861Z,25.10
2018-07-20T07:26:44.810Z,24.00
2018-07-20T07:29:48.783Z,23.40
2018-07-20T07:32:52.658Z,23.10
2018-07-20T07:35:56.634Z,22.60
2018-07-20T07:39:00.471Z,21.70
2018-07-20T07:42:04.419Z,21.20
2018-07-20T07:45:08.535Z,21.10
2018-07-20T07:48:12.442Z,20.90
2018-07-20T07:51:16.364Z,20.60
2018-07-20T07:54:20.263Z,20.40
2018-07-20T07:57:24.209Z,20.20
2018-07-20T08:00:28.131Z,20.20
2018-07-20T08:03:38.520Z,20.30
2018-07-20T08:06:42.433Z,20.30
2018-07-20T08:09:46.405Z,20.50
2018-07-20T08:12:50.359Z,20.90
2018-07-20T08:15:54.397Z,21.50
2018-07-20T08:18:58.229Z,22.50
2018-07-20T08:22:02.162Z,23.60
2018-07-20T08:25:06.217Z,24.60
2018-07-20T08:28:10.183Z,25.50
2018-07-20T08:31:14.118Z,26.30
2018-07-20T08:34:18.054Z,27.00
2018-07-20T08:37:22.290Z,27.10
2018-07-20T08:40:26.181Z,27.60
2018-07-20T08:43:30.183Z,29.30
2018-07-20T08:46:34.099Z,30.40
2018-07-20T08:49:38.039Z,32.10
2018-07-20T08:52:41.970Z,32.70
2018-07-20T08:55:46.050Z,32.80
2018-07-20T08:58:49.932Z,33.00
2018-07-20T09:01:53.874Z,33.50
2018-07-20T09:04:57.761Z,32.80
2018-07-20T09:08:01.720Z,32.90
2018-07-20T09:11:05.669Z,33.00
2018-07-20T09:14:09.630Z,32.10
2018-07-20T09:17:13.509Z,33.40
2018-07-20T09:20:17.394Z,33.80
2018-07-20T09:23:21.322Z,33.10
2018-07-20T09:26:25.193Z,33.20
2018-07-20T09:29:29.067Z,33.50
2018-07-20T09:32:32.997Z,33.60
2018-07-20T09:35:36.959Z,33.50
2018-07-20T09:38:41.392Z,32.20
2018-07-20T09:41:45.430Z,32.10
2018-07-20T09:44:49.350Z,32.50
2018-07-20T09:47:53.347Z,31.20
2018-07-20T09:50:57.319Z,31.80
2018-07-20T09:54:01.353Z,31.10
2018-07-20T09:57:05.725Z,31.40
2018-07-20T10:00:09.735Z,31.30
2018-07-20T10:03:13.696Z,31.70
2018-07-20T10:06:17.659Z,30.50
2018-07-20T10:09:21.544Z,30.20
2018-07-20T10:12:26.262Z,30.00
2018-07-20T10:15:30.119Z,30.00
2018-07-20T10:18:34.062Z,29.50
2018-07-20T10:21:38.057Z,30.10
2018-07-20T10:24:42.013Z,29.40
2018-07-20T10:27:45.919Z,28.30
2018-07-20T10:30:49.774Z,29.00
2018-07-20T10:33:53.769Z,29.60
2018-07-20T10:36:57.644Z,29.90
2018-07-20T10:40:01.585Z,29.30
2018-07-20T10:43:05.667Z,29.30
2018-07-20T10:46:09.585Z,29.20
2018-07-20T10:49:13.565Z,28.60
2018-07-20T10:52:17.416Z,28.70
2018-07-20T10:55:21.477Z,28.50
2018-07-20T10:58:25.393Z,28.80
2018-07-20T11:01:29.424Z,29.00
2018-07-20T11:04:33.834Z,29.00
2018-07-20T11:07:37.751Z,28.40
2018-07-20T11:10:41.609Z,28.10
2018-07-20T11:13:45.551Z,27.70
2018-07-20T11:16:49.439Z,26.40
2018-07-20T11:19:53.383Z,26.70
2018-07-20T11:22:57.301Z,26.40
2018-07-20T11:26:01.249Z,26.90
2018-07-20T11:29:05.110Z,26.90
2018-07-20T11:32:09.071Z,26.90
2018-07-20T11:35:12.938Z,27.00
2018-07-20T11:38:17.101Z,27.40
2018-07-20T11:41:21.006Z,26.60
2018-07-20T11:44:24.962Z,26.60
2018-07-20T11:47:28.863Z,26.20
2018-07-20T11:50:32.845Z,26.30
2018-07-20T11:53:36.866Z,25.90
2018-07-20T11:56:40.857Z,26.40
2018-07-20T11:59:44.873Z,26.30
2018-07-20T12:02:49.164Z,26.70
2018-07-20T12:05:53.119Z,26.80
2018-07-20T12:08:57.008Z,26.30
2018-07-20T12:12:01.057Z,26.90
2018-07-20T12:15:05.332Z,26.60
2018-07-20T12:18:09.311Z,26.10
2018-07-20T12:21:13.173Z,26.80
2018-07-20T12:24:17.177Z,27.30
2018-07-20T12:27:21.276Z,27.20
2018-07-20T12:30:25.239Z,28.30
2018-07-20T12:33:29.146Z,28.40
2018-07-20T12:36:33.087Z,28.20
2018-07-20T12:39:37.009Z,28.40
2018-07-20T12:42:40.896Z,28.60
2018-07-20T12:45:44.836Z,28.80
2018-07-20T12:48:48.727Z,28.70
2018-07-20T12:51:52.655Z,28.70
2018-07-20T12:54:56.565Z,28.50
2018-07-20T12:58:00.466Z,29.40
2018-07-20T13:01:04.390Z,29.40
2018-07-20T13:04:08.315Z,30.10
2018-07-20T13:07:12.168Z,30.00
2018-07-20T13:10:16.133Z,30.30
2018-07-20T13:13:20.058Z,30.20
2018-07-20T13:16:24.044Z,29.90
2018-07-20T13:19:27.969Z,29.60
2018-07-20T13:22:31.815Z,29.40
2018-07-20T13:25:35.665Z,29.60
2018-07-20T13:28:39.612Z,29.30
2018-07-20T13:31:43.487Z,29.60
2018-07-20T13:34:47.475Z,29.50
2018-07-20T13:37:51.460Z,29.90
2018-07-20T13:40:55.341Z,30.40
2018-07-20T13:43:59.262Z,29.80
2018-07-20T13:47:03.158Z,29.90
2018-07-20T13:50:07.366Z,29.70
2018-07-20T13:53:11.293Z,29.60
2018-07-20T13:56:15.340Z,29.10
2018-07-20T13:59:20.308Z,29.50
2018-07-20T14:02:24.250Z,29.90
2018-07-20T14:05:28.385Z,30.60
2018-07-20T14:08:32.421Z,30.70
2018-07-20T14:11:36.354Z,30.90
2018-07-20T14:14:40.341Z,31.00
2018-07-20T14:17:44.253Z,31.60
2018-07-20T14:20:48.225Z,32.10
2018-07-20T14:23:52.100Z,32.50
2018-07-20T14:26:56.157Z,33.40
2018-07-20T14:30:00.047Z,33.70
2018-07-20T14:33:04.051Z,33.80
2018-07-20T14:36:08.029Z,34.90
2018-07-20T14:39:13.540Z,34.90
2018-07-20T14:42:17.487Z,35.10
2018-07-20T14:45:21.440Z,35.60
2018-07-20T14:48:25.510Z,36.10
2018-07-20T14:51:29.497Z,36.60
2018-07-20T14:54:33.431Z,36.80
2018-07-20T14:57:37.332Z,37.20
2018-07-20T15:00:41.574Z,37.10
2018-07-20T15:03:45.507Z,37.60
2018-07-20T15:06:49.521Z,38.00
2018-07-20T15:09:53.496Z,38.40
2018-07-20T15:12:57.387Z,38.10
2018-07-20T15:16:02.081Z,38.40
2018-07-20T15:19:06.111Z,38.10
2018-07-20T15:22:10.182Z,37.90
2018-07-20T15:25:14.070Z,38.00
2018-07-20T15:28:18.004Z,38.10
2018-07-20T15:31:21.917Z,38.10
2018-07-20T15:34:25.964Z,38.40
2018-07-20T15:37:29.900Z,38.80
2018-07-20T15:40:33.798Z,38.90
2018-07-20T15:43:38.678Z,39.30
2018-07-20T15:46:42.612Z,39.70
2018-07-20T15:49:46.558Z,40.10
2018-07-20T15:53:35.789Z,40.00
2018-07-20T15:55:54.418Z,40.40
2018-07-20T15:58:58.336Z,40.50
2018-07-20T16:02:02.335Z,40.70
2018-07-20T16:05:06.328Z,40.90
2018-07-20T16:08:10.291Z,40.20
2018-07-20T16:11:14.192Z,40.40
2018-07-20T16:14:18.223Z,40.20
2018-07-20T16:17:22.083Z,39.80
2018-07-20T16:20:26.063Z,40.00
2018-07-20T16:23:30.105Z,40.20
2018-07-20T16:26:34.019Z,40.00
2018-07-20T16:29:38.088Z,40.50
2018-07-20T16:32:42.008Z,40.70
2018-07-20T16:35:46.058Z,40.50
2018-07-20T16:38:49.972Z,40.50
2018-07-20T16:41:53.840Z,41.00
2018-07-20T16:44:57.808Z,41.70
2018-07-20T16:48:01.781Z,41.10
2018-07-20T16:51:05.787Z,41.20
2018-07-20T16:54:09.696Z,41.60
2018-07-20T16:57:13.631Z,41.80
2018-07-20T17:00:17.587Z,41.90
2018-07-20T17:03:21.870Z,41.70
2018-07-20T17:06:25.902Z,41.40
2018-07-20T17:09:29.862Z,42.00
2018-07-20T17:12:34.772Z,41.90
2018-07-20T17:15:38.924Z,41.90
2018-07-20T17:18:43.154Z,41.70
2018-07-20T17:21:47.381Z,41.50
2018-07-20T17:24:51.631Z,41.30
2018-07-20T17:27:55.785Z,40.90
2018-07-20T17:30:59.753Z,41.00
2018-07-20T17:34:04.886Z,41.30
2018-07-20T17:37:08.846Z,41.40
2018-07-20T17:40:12.707Z,41.70
2018-07-20T17:43:16.774Z,42.10
2018-07-20T17:46:23.600Z,42.50
2018-07-20T17:49:27.531Z,42.60
2018-07-20T17:52:31.391Z,43.50
2018-07-20T17:55:35.357Z,43.70
2018-07-20T17:58:39.225Z,43.80
2018-07-20T18:01:43.190Z,44.00
2018-07-20T18:04:47.106Z,44.50
2018-07-20T18:07:51.038Z,46.80
2018-07-20T18:10:54.970Z,47.40
2018-07-20T18:13:58.911Z,47.60
2018-07-20T18:17:02.840Z,48.00
2018-07-20T18:20:07.049Z,48.60
2018-07-20T18:23:10.966Z,49.50
2018-07-20T18:26:14.877Z,49.80
2018-07-20T18:29:18.797Z,49.90
2018-07-20T18:32:22.769Z,50.10
2018-07-20T18:35:26.791Z,50.10
2018-07-20T18:38:30.823Z,50.10
2018-07-20T18:41:34.915Z,50.10
2018-07-20T18:44:38.858Z,50.20
2018-07-20T18:47:42.853Z,50.30
2018-07-20T18:50:46.741Z,50.80
2018-07-20T18:53:50.710Z,51.00
2018-07-20T18:56:54.657Z,50.20
2018-07-20T18:59:58.760Z,50.40
2018-07-20T19:03:02.728Z,50.00
2018-07-20T19:06:06.884Z,45.90
2018-07-20T19:09:11.823Z,44.90
2018-07-20T19:12:15.793Z,44.40
2018-07-20T19:15:19.692Z,44.70
2018-07-20T19:18:23.622Z,44.90
2018-07-20T19:21:27.555Z,45.10
2018-07-20T19:24:31.483Z,45.00
2018-07-20T19:27:35.486Z,45.70
2018-07-20T19:30:39.411Z,48.10
2018-07-20T19:33:43.441Z,49.60
2018-07-20T19:36:47.355Z,49.80
2018-07-20T19:39:51.329Z,50.00
2018-07-20T19:42:55.276Z,50.20
2018-07-20T19:45:59.294Z,50.90
2018-07-20T19:49:03.394Z,52.00
2018-07-20T19:52:07.507Z,52.30
2018-07-20T19:55:11.478Z,52.60
2018-07-20T19:58:15.415Z,52.60
2018-07-20T20:01:19.432Z,52.70
2018-07-20T20:04:23.417Z,53.40
2018-07-20T20:07:27.334Z,53.30
2018-07-20T20:10:31.383Z,53.10
2018-07-20T20:13:35.346Z,53.30
2018-07-20T20:16:39.918Z,53.90
2018-07-20T20:19:43.851Z,54.10
2018-07-20T20:22:47.847Z,54.20
2018-07-20T20:25:51.885Z,54.20
2018-07-20T20:28:56.033Z,54.50
2018-07-20T20:31:59.990Z,54.70
2018-07-20T20:35:04.082Z,54.80
2018-07-20T20:38:07.983Z,55.10
2018-07-20T20:41:12.002Z,55.40
2018-07-20T20:44:15.924Z,55.80
2018-07-20T20:47:19.898Z,56.20
2018-07-20T20:50:23.810Z,56.50
2018-07-20T20:53:27.950Z,56.50
2018-07-20T20:56:31.861Z,56.60
2018-07-20T20:59:35.848Z,56.80
2018-07-20T21:02:39.791Z,57.10
2018-07-20T21:05:43.850Z,57.20
2018-07-20T21:08:47.888Z,57.20
2018-07-20T21:11:51.932Z,57.10
2018-07-20T21:14:55.943Z,57.10
2018-07-20T21:17:59.860Z,57.00
2018-07-20T21:21:03.915Z,57.00
2018-07-20T21:24:08.063Z,57.20
2018-07-20T21:27:11.994Z,57.40
2018-07-20T21:30:15.920Z,57.60
2018-07-20T21:33:19.870Z,57.60
2018-07-20T21:36:23.848Z,57.50
2018-07-20T21:39:27.761Z,57.50
2018-07-20T21:42:31.787Z,58.30
2018-07-20T21:45:35.723Z,57.80
2018-07-20T21:48:39.720Z,58.00
2018-07-20T21:51:43.638Z,58.10
2018-07-20T21:54:47.563Z,58.30
2018-07-20T21:57:51.481Z,58.30
2018-07-20T22:00:55.463Z,58.40
2018-07-20T22:03:59.522Z,58.60
2018-07-20T22:07:03.644Z,58.70
2018-07-20T22:10:08.061Z,59.00
2018-07-20T22:13:11.996Z,59.00
2018-07-20T22:16:15.934Z,59.10
2018-07-20T22:19:20.010Z,59.00
2018-07-20T22:22:24.332Z,59.10
2018-07-20T22:25:28.312Z,59.20
2018-07-20T22:28:32.192Z,59.20
2018-07-20T22:31:36.177Z,59.20
2018-07-20T22:34:40.072Z,59.40
2018-07-20T22:37:44.444Z,59.60
2018-07-20T22:40:48.324Z,59.70
2018-07-20T22:43:52.324Z,59.70
2018-07-20T22:46:56.233Z,59.80
2018-07-20T22:50:00.370Z,59.90
2018-07-20T22:53:04.309Z,60.00
2018-07-20T22:56:08.225Z,60.10
2018-07-20T22:59:12.150Z,60.10
2018-07-20T23:02:16.195Z,60.50
2018-07-20T23:05:20.084Z,60.60
2018-07-20T23:08:24.052Z,60.90
2018-07-20T23:11:27.926Z,61.70
2018-07-20T23:14:31.811Z,60.80
2018-07-20T23:17:35.753Z,61.00
2018-07-20T23:20:39.676Z,61.10
2018-07-20T23:23:43.580Z,61.20
2018-07-20T23:26:47.507Z,61.30
2018-07-20T23:29:51.361Z,61.50
2018-07-20T23:32:55.339Z,61.60
2018-07-20T23:35:59.230Z,61.70
2018-07-20T23:39:03.247Z,61.80
2018-07-20T23:42:07.211Z,62.00
2018-07-20T23:45:11.145Z,61.80
2018-07-20T23:48:15.063Z,62.00
2018-07-20T23:51:19.010Z,62.10
2018-07-20T23:54:22.866Z,61.80
2018-07-20T23:57:26.804Z,61.70
